Terminal Aerodrome Forecast
Issued by NWS

Home | Current Version | Previous Version | Text Only | Print | Product List | Glossary On
Versions: 1 2 3 4 5 6 7 8 9 10 11 12 13 14 15 16 17 18 19 20 21 22
000
FTUS43 KILX 212300
TAFDEC
TAF
KDEC 212327Z 2200/2224 33010G16KT P6SM SCT050
     FM220100 34008KT P6SM SCT050
     FM220500 36005KT P6SM SKC
     FM222300 VRB03KT P6SM SKC=

USA.gov is the U.S. government's official web portal to all federal, state and local government web resources and services.